createdAt,value
2022-10-13T00:02:10.407Z,100942.94
2022-10-13T00:04:54.276Z,100940.47
2022-10-13T00:07:38.129Z,100943.03
2022-10-13T00:10:23.364Z,100932.75
2022-10-13T00:13:07.579Z,100942.25
2022-10-13T00:15:51.393Z,100935.16
2022-10-13T00:18:35.346Z,100942.63
2022-10-13T00:21:22.251Z,100931.38
2022-10-13T00:24:06.424Z,100930.69
2022-10-13T00:26:53.473Z,100930.16
2022-10-13T00:29:37.339Z,100938.94
2022-10-13T00:32:21.479Z,100917.66
2022-10-13T00:35:05.783Z,100897.78
2022-10-13T00:37:49.904Z,100935.41
2022-10-13T00:40:34.025Z,100932.59
2022-10-13T00:43:24.731Z,100918.44
2022-10-13T00:46:08.572Z,100930.34
2022-10-13T00:48:53.551Z,100928.44
2022-10-13T00:51:41.535Z,100928.44
2022-10-13T00:54:26.365Z,100923.50
2022-10-13T00:57:11.343Z,100888.03
2022-10-13T00:59:57.043Z,100926.25
2022-10-13T01:02:41.309Z,100912.59
2022-10-13T01:05:26.220Z,100905.56
2022-10-13T01:08:12.910Z,100934.66
2022-10-13T01:11:09.183Z,100935.84
2022-10-13T01:14:03.368Z,100940.09
2022-10-13T01:16:54.318Z,100909.78
2022-10-13T01:20:11.141Z,100927.94
2022-10-13T01:23:07.610Z,100922.81
2022-10-13T01:26:10.899Z,100931.19
2022-10-13T01:29:33.761Z,100934.28
2022-10-13T01:32:27.183Z,100928.63
2022-10-13T01:35:19.685Z,100932.22
2022-10-13T01:38:09.431Z,100875.66
2022-10-13T01:41:01.505Z,100914.41
2022-10-13T01:43:50.027Z,100925.88
2022-10-13T01:46:38.199Z,100921.53
2022-10-13T01:49:28.398Z,100923.50
2022-10-13T01:52:17.706Z,100918.34
2022-10-13T01:55:08.900Z,100911.66
2022-10-13T01:57:52.709Z,100923.66
2022-10-13T02:00:44.691Z,100921.78
2022-10-13T02:03:38.197Z,100916.47
2022-10-13T02:06:29.181Z,100907.78
2022-10-13T02:09:21.020Z,100901.69
2022-10-13T02:12:22.066Z,100930.50
2022-10-13T02:15:10.207Z,100931.53
2022-10-13T02:17:58.391Z,100934.44
2022-10-13T02:20:44.430Z,100907.19
2022-10-13T02:23:30.091Z,100937.28
2022-10-13T02:26:15.243Z,100935.22
2022-10-13T02:28:59.024Z,100936.84
2022-10-13T02:31:44.836Z,100938.09
2022-10-13T02:34:28.710Z,100941.25
2022-10-13T02:37:12.577Z,100939.38
2022-10-13T02:39:57.694Z,100934.91
2022-10-13T02:42:41.544Z,100939.81
2022-10-13T02:45:25.410Z,100937.16
2022-10-13T02:48:11.889Z,100933.56
2022-10-13T02:50:55.649Z,100933.63
2022-10-13T02:53:39.545Z,100926.94
2022-10-13T02:56:24.697Z,100924.19
2022-10-13T02:59:08.663Z,100945.97
2022-10-13T03:01:52.460Z,100952.91
2022-10-13T03:04:36.663Z,100949.09
2022-10-13T03:07:20.554Z,100949.59
2022-10-13T03:10:05.357Z,100953.38
2022-10-13T03:12:50.608Z,100950.41
2022-10-13T03:15:34.346Z,100951.13
2022-10-13T03:18:21.474Z,100906.72
2022-10-13T03:21:07.245Z,100944.41
2022-10-13T03:23:52.610Z,100946.91
2022-10-13T03:26:37.982Z,100946.41
2022-10-13T03:29:23.766Z,100940.69
2022-10-13T03:32:07.559Z,100925.88
2022-10-13T03:34:51.679Z,100925.63
2022-10-13T03:37:35.644Z,100926.56
2022-10-13T03:40:19.469Z,100924.25
2022-10-13T03:43:03.248Z,100916.28
2022-10-13T03:45:56.112Z,100778.25
2022-10-13T03:48:40.581Z,100887.31
2022-10-13T03:51:25.067Z,100867.22
2022-10-13T03:54:08.983Z,100900.50
2022-10-13T03:56:52.703Z,100892.19
2022-10-13T03:59:37.093Z,100887.59
2022-10-13T04:02:22.558Z,100904.84
2022-10-13T04:05:07.488Z,100909.44
2022-10-13T04:07:51.187Z,100880.22
2022-10-13T04:10:42.695Z,100894.78
2022-10-13T04:13:26.508Z,100896.63
2022-10-13T04:16:13.491Z,100895.31
2022-10-13T04:19:00.445Z,100884.66
2022-10-13T04:21:45.019Z,100857.31
2022-10-13T04:24:28.892Z,100889.38
2022-10-13T04:27:12.677Z,100895.25
2022-10-13T04:29:56.409Z,100899.63
2022-10-13T04:32:40.428Z,100899.66
2022-10-13T04:35:26.234Z,100906.81
2022-10-13T04:38:10.154Z,100913.59
2022-10-13T04:40:53.979Z,100916.03
2022-10-13T04:43:37.706Z,100907.13
2022-10-13T04:46:23.973Z,100908.91
2022-10-13T04:49:08.227Z,100910.84
2022-10-13T04:51:53.324Z,100907.34
2022-10-13T04:54:37.306Z,100914.22
2022-10-13T04:57:21.246Z,100906.97
2022-10-13T05:00:07.348Z,100910.88
2022-10-13T05:02:51.196Z,100876.47
2022-10-13T05:05:36.823Z,100917.59
2022-10-13T05:08:22.126Z,100916.50
2022-10-13T05:11:07.083Z,100919.28
2022-10-13T05:13:51.078Z,100926.47
2022-10-13T05:16:34.835Z,100928.75
2022-10-13T05:19:18.629Z,100920.19
2022-10-13T05:22:02.310Z,100891.31
2022-10-13T05:24:47.438Z,100926.38
2022-10-13T05:27:31.187Z,100929.63
2022-10-13T05:30:17.414Z,100934.03
2022-10-13T05:33:01.177Z,100941.84
2022-10-13T05:35:44.935Z,100931.47
2022-10-13T05:38:28.702Z,100921.16
2022-10-13T05:41:15.558Z,100917.47
2022-10-13T05:44:01.679Z,100936.94
2022-10-13T05:46:46.005Z,100937.78
2022-10-13T05:49:29.712Z,100938.78
2022-10-13T05:52:14.240Z,100947.97
2022-10-13T05:55:01.244Z,100950.94
2022-10-13T05:57:52.308Z,100955.44
2022-10-13T06:00:37.374Z,100950.50
2022-10-13T06:03:24.430Z,100953.53
2022-10-13T06:06:08.979Z,100959.34
2022-10-13T06:08:53.649Z,100960.78
2022-10-13T06:11:37.490Z,100955.22
2022-10-13T06:14:22.637Z,100962.81
2022-10-13T06:17:06.461Z,100919.09
2022-10-13T06:19:50.420Z,100921.78
2022-10-13T06:22:34.800Z,100910.16
2022-10-13T06:25:19.028Z,100804.22
2022-10-13T06:28:03.880Z,100936.88
2022-10-13T06:30:54.221Z,100946.19
2022-10-13T06:33:39.405Z,100947.03
2022-10-13T06:36:23.472Z,100950.09
2022-10-13T06:39:07.309Z,100948.47
2022-10-13T06:41:52.720Z,100953.69
2022-10-13T06:44:37.246Z,100958.75
2022-10-13T06:47:22.531Z,100915.56
2022-10-13T06:50:06.996Z,100950.06
2022-10-13T06:52:50.822Z,100958.06
2022-10-13T06:55:34.568Z,100942.47
2022-10-13T06:58:18.297Z,100960.53
2022-10-13T07:01:02.042Z,100942.59
2022-10-13T07:03:49.889Z,100928.63
2022-10-13T07:06:36.113Z,100968.72
2022-10-13T07:09:20.641Z,100963.53
2022-10-13T07:12:04.385Z,100954.59
2022-10-13T07:14:48.672Z,100949.84
2022-10-13T07:17:32.422Z,100950.22
2022-10-13T07:20:17.698Z,100954.53
2022-10-13T07:23:01.632Z,100951.63
2022-10-13T07:25:45.356Z,100946.63
2022-10-13T07:28:29.403Z,100942.44
2022-10-13T07:31:15.390Z,100946.59
2022-10-13T07:34:00.425Z,100943.69
2022-10-13T07:36:46.763Z,100908.25
2022-10-13T07:39:30.577Z,100916.16
2022-10-13T07:42:14.569Z,100923.63
2022-10-13T07:44:58.307Z,100940.94
2022-10-13T07:47:48.209Z,100932.81
2022-10-13T07:50:32.036Z,100930.78
2022-10-13T07:53:17.166Z,100921.78
2022-10-13T07:56:01.797Z,100924.94
2022-10-13T07:58:47.037Z,100918.63
2022-10-13T08:01:30.932Z,100923.06
2022-10-13T08:04:15.391Z,100913.94
2022-10-13T08:06:59.566Z,100885.00
2022-10-13T08:09:45.202Z,100923.09
2022-10-13T08:12:28.897Z,100918.34
2022-10-13T08:15:12.647Z,100906.34
2022-10-13T08:17:56.440Z,100916.66
2022-10-13T08:20:43.874Z,100921.38
2022-10-13T08:23:27.760Z,100927.03
2022-10-13T08:26:18.135Z,100926.13
2022-10-13T08:29:21.951Z,100918.63
2022-10-13T08:32:05.714Z,100915.94
2022-10-13T08:34:49.534Z,100925.47
2022-10-13T08:37:33.334Z,100921.13
2022-10-13T08:40:20.758Z,100909.41
2022-10-13T08:43:08.516Z,100922.69
2022-10-13T08:45:57.902Z,100923.91
2022-10-13T08:48:43.860Z,100926.13
2022-10-13T08:51:30.186Z,100910.38
2022-10-13T08:54:17.134Z,100927.66
2022-10-13T08:59:46.375Z,100909.56
2022-10-13T09:02:32.139Z,100910.50
2022-10-13T09:05:26.469Z,100912.28
2022-10-13T09:08:21.301Z,100891.06
2022-10-13T09:11:05.100Z,100917.16
2022-10-13T09:13:48.812Z,100919.25
2022-10-13T09:16:37.623Z,100918.13
2022-10-13T09:19:30.112Z,100903.53
2022-10-13T09:22:24.767Z,100893.06
2022-10-13T09:25:19.745Z,100913.09
2022-10-13T09:28:12.820Z,100910.38
2022-10-13T09:31:11.583Z,100917.94
2022-10-13T09:34:04.398Z,100872.03
2022-10-13T09:37:03.178Z,100896.19
2022-10-13T09:39:47.265Z,100914.75
2022-10-13T09:42:32.902Z,100913.28
2022-10-13T09:45:22.342Z,100920.06
2022-10-13T09:48:08.994Z,100918.38
2022-10-13T09:50:56.496Z,100914.91
2022-10-13T09:53:42.295Z,100897.19
2022-10-13T09:56:32.147Z,100901.03
2022-10-13T09:59:25.449Z,100904.09
2022-10-13T10:02:23.678Z,100900.72
2022-10-13T10:05:22.824Z,100880.34
2022-10-13T10:08:16.658Z,100910.00
2022-10-13T10:11:02.963Z,100886.53
2022-10-13T10:13:46.832Z,100889.00
2022-10-13T10:16:36.910Z,100890.06
2022-10-13T10:19:26.044Z,100885.41
2022-10-13T10:22:18.037Z,100873.06
2022-10-13T10:25:14.149Z,100886.28
2022-10-13T10:28:25.384Z,100849.03
2022-10-13T10:31:20.345Z,100877.53
2022-10-13T10:34:21.361Z,100840.78
2022-10-13T10:37:22.750Z,100873.63
2022-10-13T10:40:22.465Z,100861.94
2022-10-13T10:43:27.401Z,100840.16
2022-10-13T10:46:18.229Z,100865.84
2022-10-13T10:49:05.187Z,100870.31
2022-10-13T10:51:49.276Z,100859.44
2022-10-13T10:54:46.700Z,100848.69
2022-10-13T10:57:44.379Z,100811.94
2022-10-13T11:03:30.518Z,100831.22
2022-10-13T11:06:26.580Z,100840.44
2022-10-13T11:09:13.011Z,100836.59
2022-10-13T11:11:56.942Z,100840.47
2022-10-13T11:14:44.339Z,100837.00
2022-10-13T11:17:33.020Z,100795.38
2022-10-13T11:20:53.461Z,100828.34
2022-10-13T11:23:46.087Z,100801.81
2022-10-13T11:26:43.264Z,100795.28
2022-10-13T11:29:55.194Z,100796.81
2022-10-13T11:32:55.530Z,100816.13
2022-10-13T11:35:39.280Z,100818.19
2022-10-13T11:38:32.875Z,100815.13
2022-10-13T11:41:25.904Z,100806.91
2022-10-13T11:44:16.969Z,100811.63
2022-10-13T11:47:13.436Z,100810.06
2022-10-13T11:50:08.964Z,100803.66
2022-10-13T11:53:08.544Z,100793.16
2022-10-13T11:55:54.172Z,100798.56
2022-10-13T11:58:43.491Z,100792.78
2022-10-13T12:01:27.310Z,100790.81
2022-10-13T12:04:16.972Z,100783.03
2022-10-13T12:07:03.478Z,100771.06
2022-10-13T12:09:52.527Z,100799.38
2022-10-13T12:12:39.023Z,100781.28
2022-10-13T12:15:33.296Z,100778.56
2022-10-13T12:18:25.177Z,100736.47
2022-10-13T12:21:14.899Z,100777.56
2022-10-13T12:24:08.093Z,100777.56
2022-10-13T12:26:51.898Z,100781.94
2022-10-13T12:29:37.469Z,100769.25
2022-10-13T12:32:22.724Z,100772.38
2022-10-13T12:35:19.074Z,100771.53
2022-10-13T12:38:07.889Z,100765.88
2022-10-13T12:40:54.557Z,100768.25
2022-10-13T12:43:43.764Z,100752.41
2022-10-13T12:46:38.582Z,100757.03
2022-10-13T12:49:24.923Z,100750.25
2022-10-13T12:52:16.117Z,100747.41
2022-10-13T12:55:01.384Z,100707.41
2022-10-13T12:57:48.936Z,100746.66
2022-10-13T13:00:32.765Z,100737.69
2022-10-13T13:03:24.235Z,100743.13
2022-10-13T13:06:11.309Z,100739.69
2022-10-13T13:09:23.807Z,100750.41
2022-10-13T13:12:23.782Z,100746.22
2022-10-13T13:15:34.399Z,100744.66
2022-10-13T13:18:41.690Z,100736.81
2022-10-13T13:21:25.463Z,100749.53
2022-10-13T13:24:16.422Z,100755.88
2022-10-13T13:27:25.856Z,100720.72
2022-10-13T13:30:13.187Z,100759.78
2022-10-13T13:32:57.029Z,100753.38
2022-10-13T13:35:40.871Z,100742.56
2022-10-13T13:38:24.558Z,100765.81
2022-10-13T13:41:10.475Z,100759.50
2022-10-13T13:43:55.639Z,100767.00
2022-10-13T13:46:39.397Z,100762.84
2022-10-13T13:49:23.099Z,100765.50
2022-10-13T13:52:06.961Z,100762.25
2022-10-13T13:54:51.692Z,100757.25
2022-10-13T13:57:35.478Z,100766.91
2022-10-13T14:00:20.874Z,100749.34
2022-10-13T14:03:10.065Z,100703.47
2022-10-13T14:05:53.754Z,100755.19
2022-10-13T14:08:42.538Z,100752.28
2022-10-13T14:11:26.916Z,100758.84
2022-10-13T14:14:10.638Z,100745.97
2022-10-13T14:16:55.747Z,100735.75
2022-10-13T14:19:39.446Z,100745.59
2022-10-13T14:22:23.798Z,100751.19
2022-10-13T14:25:08.920Z,100752.53
2022-10-13T14:27:54.079Z,100753.19
2022-10-13T14:30:40.452Z,100702.53
2022-10-13T14:33:25.762Z,100732.28
2022-10-13T14:36:10.395Z,100757.84
2022-10-13T14:38:55.089Z,100739.09
2022-10-13T14:41:39.161Z,100771.03
2022-10-13T14:44:22.928Z,100775.50
2022-10-13T14:47:07.166Z,100730.19
2022-10-13T14:49:52.628Z,100739.38
2022-10-13T14:52:36.306Z,100767.53
2022-10-13T14:55:19.985Z,100747.97
2022-10-13T14:58:03.922Z,100774.34
2022-10-13T15:00:47.587Z,100774.34
2022-10-13T15:03:31.372Z,100772.78
2022-10-13T15:06:18.101Z,100767.47
2022-10-13T15:09:02.229Z,100781.28
2022-10-13T15:11:47.854Z,100782.59
2022-10-13T15:14:31.813Z,100781.69
2022-10-13T15:17:16.984Z,100787.66
2022-10-13T15:20:00.766Z,100782.97
2022-10-13T15:22:46.041Z,100787.78
2022-10-13T15:25:29.844Z,100786.84
2022-10-13T15:28:13.706Z,100791.78
2022-10-13T15:30:57.667Z,100790.41
2022-10-13T15:33:43.733Z,100798.84
2022-10-13T15:36:27.638Z,100789.88
2022-10-13T15:39:12.838Z,100783.47
2022-10-13T15:41:57.395Z,100799.06
2022-10-13T15:45:08.066Z,100804.22
2022-10-13T15:47:46.731Z,100787.56
2022-10-13T15:50:30.710Z,100782.63
2022-10-13T15:53:14.725Z,100794.94
2022-10-13T15:56:02.871Z,100779.22
2022-10-13T15:58:46.780Z,100790.97
2022-10-13T16:01:30.530Z,100790.88
2022-10-13T16:04:14.454Z,100797.78
2022-10-13T16:06:58.376Z,100787.88
2022-10-13T16:09:42.512Z,100762.72
2022-10-13T16:12:29.181Z,100805.00
2022-10-13T16:15:13.275Z,100770.63
2022-10-13T16:17:57.311Z,100807.34
2022-10-13T16:20:45.537Z,100805.56
2022-10-13T16:23:29.510Z,100787.56
2022-10-13T16:26:13.525Z,100774.84
2022-10-13T16:28:58.898Z,100810.16
2022-10-13T16:31:43.196Z,100807.97
2022-10-13T16:34:27.649Z,100793.34
2022-10-13T16:37:11.612Z,100808.59
2022-10-13T16:39:55.735Z,100812.13
2022-10-13T16:42:39.704Z,100830.81
2022-10-13T16:45:41.313Z,100786.72
2022-10-13T16:48:25.556Z,100782.94
2022-10-13T16:51:12.118Z,100789.97
2022-10-13T16:54:02.813Z,100786.16
2022-10-13T16:56:48.176Z,100807.34
2022-10-13T16:59:32.240Z,100765.72
2022-10-13T17:02:17.663Z,100805.91
2022-10-13T17:05:01.655Z,100808.03
2022-10-13T17:07:47.596Z,100809.34
2022-10-13T17:10:31.559Z,100759.06
2022-10-13T17:13:18.420Z,100749.03
2022-10-13T17:16:02.519Z,100780.03
2022-10-13T17:18:47.944Z,100779.88
2022-10-13T17:21:31.824Z,100786.06
2022-10-13T17:24:17.876Z,100792.38
2022-10-13T17:27:01.844Z,100765.34
2022-10-13T17:29:46.598Z,100793.25
2022-10-13T17:32:30.623Z,100798.28
2022-10-13T17:35:18.165Z,100745.03
2022-10-13T17:38:02.306Z,100740.53
2022-10-13T17:40:46.133Z,100780.44
2022-10-13T17:43:30.616Z,100776.97
2022-10-13T17:49:23.121Z,100776.84
2022-10-13T17:52:08.629Z,100770.41
2022-10-13T17:54:52.480Z,100746.19
2022-10-13T17:57:36.318Z,100777.09
2022-10-13T18:00:23.869Z,100771.72
2022-10-13T18:03:07.772Z,100775.06
2022-10-13T18:05:51.983Z,100769.91
2022-10-13T18:08:37.347Z,100771.63
2022-10-13T18:11:24.416Z,100770.00
2022-10-13T18:14:08.972Z,100742.34
2022-10-13T18:16:54.779Z,100764.59
2022-10-13T18:19:40.403Z,100768.19
2022-10-13T18:22:24.366Z,100767.38
2022-10-13T18:25:10.445Z,100757.94
2022-10-13T18:27:54.871Z,100771.75
2022-10-13T18:30:39.123Z,100765.47
2022-10-13T18:33:22.945Z,100761.16
2022-10-13T18:36:14.808Z,100763.75
2022-10-13T18:39:02.817Z,100758.81
2022-10-13T18:41:48.538Z,100742.19
2022-10-13T18:44:32.309Z,100764.28
2022-10-13T18:47:16.105Z,100774.91
2022-10-13T18:49:59.861Z,100761.34
2022-10-13T18:52:43.575Z,100775.75
2022-10-13T18:55:27.436Z,100770.84
2022-10-13T18:58:12.732Z,100759.06
2022-10-13T19:01:00.459Z,100769.66
2022-10-13T19:03:44.968Z,100770.97
2022-10-13T19:06:32.289Z,100785.19
2022-10-13T19:09:19.591Z,100779.19
2022-10-13T19:12:03.306Z,100783.50
2022-10-13T19:14:48.482Z,100775.06
2022-10-13T19:17:32.184Z,100784.06
2022-10-13T19:20:16.191Z,100784.09
2022-10-13T19:22:59.953Z,100779.75
2022-10-13T19:25:44.410Z,100774.72
2022-10-13T19:28:29.970Z,100775.66
2022-10-13T19:31:17.628Z,100764.94
2022-10-13T19:34:01.594Z,100778.75
2022-10-13T19:36:47.351Z,100759.16
2022-10-13T19:39:31.320Z,100767.88
2022-10-13T19:42:15.105Z,100762.84
2022-10-13T19:44:58.835Z,100787.69
2022-10-13T19:47:43.940Z,100785.97
2022-10-13T19:50:27.748Z,100785.28
2022-10-13T19:53:12.246Z,100780.06
2022-10-13T19:55:56.021Z,100793.94
2022-10-13T19:58:39.771Z,100789.09
2022-10-13T20:01:24.515Z,100791.00
2022-10-13T20:04:10.780Z,100782.97
2022-10-13T20:06:55.645Z,100741.38
2022-10-13T20:09:39.425Z,100782.88
2022-10-13T20:12:23.239Z,100765.50
2022-10-13T20:15:08.172Z,100766.94
2022-10-13T20:17:51.925Z,100770.81
2022-10-13T20:20:37.393Z,100770.28
2022-10-13T20:23:21.067Z,100770.97
2022-10-13T20:26:05.377Z,100758.47
2022-10-13T20:28:52.812Z,100756.06
2022-10-13T20:31:36.661Z,100755.03
2022-10-13T20:34:20.506Z,100753.16
2022-10-13T20:37:05.623Z,100745.81
2022-10-13T20:39:49.390Z,100732.03
2022-10-13T20:42:33.215Z,100756.66
2022-10-13T20:45:16.957Z,100761.63
2022-10-13T20:48:00.752Z,100757.94
2022-10-13T20:50:46.173Z,100752.47
2022-10-13T20:53:31.462Z,100751.25
2022-10-13T20:56:18.213Z,100759.66
2022-10-13T20:59:03.514Z,100754.88
2022-10-13T21:01:47.512Z,100748.38
2022-10-13T21:04:31.427Z,100679.13
2022-10-13T21:07:15.346Z,100727.22
2022-10-13T21:10:00.490Z,100739.38
2022-10-13T21:12:47.459Z,100735.50
2022-10-13T21:15:31.278Z,100696.50
2022-10-13T21:18:16.228Z,100723.09
2022-10-13T21:21:03.963Z,100730.91
2022-10-13T21:23:50.586Z,100725.13
2022-10-13T21:26:36.525Z,100730.91
2022-10-13T21:29:20.276Z,100725.00
2022-10-13T21:32:04.010Z,100708.78
2022-10-13T21:34:49.675Z,100723.38
2022-10-13T21:37:36.234Z,100719.16
2022-10-13T21:40:20.043Z,100709.16
2022-10-13T21:43:05.134Z,100713.78
2022-10-13T21:45:48.967Z,100698.34
2022-10-13T21:48:32.662Z,100691.09
2022-10-13T21:51:18.515Z,100698.97
2022-10-13T21:54:04.332Z,100703.47
2022-10-13T21:56:48.163Z,100700.22
2022-10-13T21:59:33.420Z,100703.34
2022-10-13T22:02:17.139Z,100695.53
2022-10-13T22:05:00.944Z,100653.31
2022-10-13T22:07:44.672Z,100653.72
2022-10-13T22:10:28.574Z,100687.19
2022-10-13T22:13:12.505Z,100688.91
2022-10-13T22:15:57.742Z,100691.84
2022-10-13T22:18:44.482Z,100691.56
2022-10-13T22:21:29.977Z,100679.00
2022-10-13T22:24:16.226Z,100690.69
2022-10-13T22:27:00.370Z,100688.72
2022-10-13T22:29:44.427Z,100687.69
2022-10-13T22:32:29.908Z,100648.06
2022-10-13T22:35:13.874Z,100691.66
2022-10-13T22:37:57.959Z,100640.88
2022-10-13T22:40:42.537Z,100662.56
2022-10-13T22:43:26.344Z,100677.28
2022-10-13T22:46:13.383Z,100687.88
2022-10-13T22:48:58.960Z,100664.94
2022-10-13T22:51:42.789Z,100683.94
2022-10-13T22:54:26.618Z,100683.09
2022-10-13T22:57:11.622Z,100692.06
2022-10-13T22:59:55.345Z,100683.50
2022-10-13T23:02:39.105Z,100681.03
2022-10-13T23:05:24.383Z,100684.63
2022-10-13T23:08:08.101Z,100683.78
2022-10-13T23:10:51.860Z,100659.38
2022-10-13T23:13:35.760Z,100670.72
2022-10-13T23:16:21.699Z,100661.00
2022-10-13T23:19:05.503Z,100660.13
2022-10-13T23:21:50.726Z,100656.13
2022-10-13T23:24:34.639Z,100677.94
2022-10-13T23:27:18.627Z,100661.78
2022-10-13T23:30:02.503Z,100665.13
2022-10-13T23:32:46.750Z,100667.84
2022-10-13T23:35:30.433Z,100628.13
2022-10-13T23:38:15.662Z,100673.16
2022-10-13T23:41:03.863Z,100671.19
2022-10-13T23:43:47.589Z,100671.78
2022-10-13T23:46:31.513Z,100665.13
2022-10-13T23:49:15.508Z,100668.38
2022-10-13T23:51:59.194Z,100674.19
2022-10-13T23:54:44.451Z,100670.75
2022-10-13T23:57:30.155Z,100620.94
